Terminal Aerodrome Forecast
Issued by NWS Jacksonville, FL

Home | Current Version | Previous Version | Text Only | Print | Product List | Glossary On
Versions: 1 2 3 4 5 6 7 8 9 10 11 12 13 14 15 16 17 18 19 20 21 22 23 24 25 26 27 28 29 30 31 32 33 34 35 36 37
000
FTUS42 KJAX 181100
TAFJAX
TAF
KJAX 181121Z 1812/1912 05012KT P6SM SCT007 BKN025
      TEMPO 1812/1814 BKN007
     FM181400 08016G25KT 5SM -SHRA BR SCT010 BKN015 OVC040
     FM181900 11016G25KT 2SM SHRA BR OVC007
     FM190400 16013KT 3SM -SHRA BR BKN010=

USA.gov is the U.S. government's official web portal to all federal, state and local government web resources and services.